Time;durP1;ratioP1;P1;durP2;ratioP2;P2;SDS_P1;SDS_P2;PMS_P1;PMS_P2;Temp;Humidity;BMP_temperature;BMP_pressure;BME280_temperature;BME280_humidity;BME280_pressure;Samples;Min_cycle;Max_cycle;Signal;HPM_P1;HPM_P2
2022/11/03 00:00:02;;;;;;;448.90;403.55;;;;;;;7.29;100.00;98756.16;7381766;19;20508;-46
2022/11/03 00:02:47;;;;;;;437.75;394.08;;;;;;;7.09;100.00;98766.53;7384991;19;20018;-48
2022/11/03 00:08:09;;;;;;;440.52;396.50;;;;;;;7.08;100.00;98762.22;7384699;19;20493;-46
2022/11/03 00:10:42;;;;;;;446.92;401.35;;;;;;;6.61;100.00;98770.94;7377863;19;20014;-47
2022/11/03 00:13:15;;;;;;;439.77;395.10;;;;;;;6.79;100.00;98770.28;7385305;19;20081;-49
2022/11/03 00:15:54;;;;;;;444.05;399.55;;;;;;;6.52;100.00;98768.66;7386620;19;20074;-47
2022/11/03 00:18:27;;;;;;;441.17;396.30;;;;;;;7.00;100.00;98758.19;7386146;19;20014;-46
2022/11/03 00:21:09;;;;;;;440.33;395.88;;;;;;;6.80;100.00;98764.13;7386748;19;20006;-49
2022/11/03 00:23:43;;;;;;;451.42;405.27;;;;;;;6.83;100.00;98764.03;7381315;19;20011;-46
2022/11/03 00:26:20;;;;;;;441.30;396.75;;;;;;;6.55;100.00;98765.91;7384757;19;20418;-47
2022/11/03 00:28:55;;;;;;;445.08;399.20;;;;;;;6.57;100.00;98756.28;7380420;19;20027;-47
2022/11/03 00:31:30;;;;;;;429.27;385.25;;;;;;;6.65;100.00;98759.47;7386627;19;20082;-48
2022/11/03 00:34:05;;;;;;;447.05;402.17;;;;;;;6.94;100.00;98764.50;7384894;19;20011;-47
2022/11/03 00:36:43;;;;;;;450.98;405.88;;;;;;;6.45;100.00;98761.94;7384641;19;20007;-47
2022/11/03 00:39:17;;;;;;;428.95;384.85;;;;;;;6.59;100.00;98761.44;7386258;19;20346;-47
2022/11/03 00:41:52;;;;;;;449.83;404.02;;;;;;;6.55;100.00;98768.53;7378864;19;20014;-47
2022/11/03 00:44:28;;;;;;;437.13;392.92;;;;;;;6.54;100.00;98764.22;7386379;19;20395;-48
2022/11/03 00:47:05;;;;;;;460.98;415.17;;;;;;;6.49;100.00;98765.28;7379428;19;20617;-49
2022/11/03 00:49:38;;;;;;;450.90;405.95;;;;;;;6.60;100.00;98765.75;7385137;19;20465;-47
2022/11/03 00:52:14;;;;;;;461.58;415.95;;;;;;;6.29;100.00;98767.75;7383516;19;20007;-48
2022/11/03 00:54:47;;;;;;;432.10;387.23;;;;;;;6.15;100.00;98765.53;7384622;19;20401;-47
2022/11/03 00:57:21;;;;;;;427.67;383.52;;;;;;;6.42;100.00;98767.28;7384658;19;20015;-47
2022/11/03 00:59:54;;;;;;;437.00;391.48;;;;;;;6.25;100.00;98772.19;7378537;19;20014;-47
2022/11/03 01:02:27;;;;;;;422.50;378.85;;;;;;;5.97;100.00;98768.78;7382933;19;20013;-47
2022/11/03 01:07:49;;;;;;;459.17;414.55;;;;;;;6.67;100.00;98768.13;7384858;19;20018;-49
2022/11/03 01:10:23;;;;;;;445.27;400.35;;;;;;;6.67;100.00;98777.72;7380662;19;20029;-47
2022/11/03 01:12:56;;;;;;;430.95;386.20;;;;;;;6.36;100.00;98793.59;7384261;19;20022;-50
2022/11/03 01:15:34;;;;;;;422.50;378.73;;;;;;;6.44;100.00;98775.88;7383232;19;20027;-48
2022/11/03 01:18:07;;;;;;;434.25;388.92;;;;;;;6.56;100.00;98780.72;7380584;19;20081;-46
2022/11/03 01:20:41;;;;;;;431.75;387.50;;;;;;;6.18;100.00;98788.94;7384485;19;20086;-47
2022/11/03 01:23:17;;;;;;;442.65;398.40;;;;;;;5.75;100.00;98786.06;7383281;19;20010;-49
2022/11/03 01:25:50;;;;;;;450.88;406.17;;;;;;;5.73;100.00;98787.84;7382906;19;20015;-48
2022/11/03 01:28:23;;;;;;;447.38;402.55;;;;;;;6.00;100.00;98786.13;7383270;19;20010;-46
2022/11/03 01:30:56;;;;;;;467.45;420.55;;;;;;;5.93;100.00;98780.25;7378886;19;20481;-50
2022/11/03 01:33:30;;;;;;;430.83;386.80;;;;;;;6.34;100.00;98784.97;7384410;19;20507;-47
2022/11/03 01:36:04;;;;;;;422.85;378.98;;;;;;;5.81;100.00;98775.41;7384597;19;20025;-47
2022/11/03 01:38:41;;;;;;;443.30;398.08;;;;;;;5.77;100.00;98773.78;7384627;19;20010;-49
2022/11/03 01:41:23;;;;;;;427.63;383.75;;;;;;;6.12;100.00;98776.13;7384050;19;20053;-47
2022/11/03 01:44:10;;;;;;;455.27;409.77;;;;;;;5.65;100.00;98782.03;7391610;19;20093;-49
2022/11/03 01:46:48;;;;;;;457.98;413.48;;;;;;;6.08;100.00;98782.34;7391048;19;20482;-46
2022/11/03 01:49:25;;;;;;;454.40;409.65;;;;;;;6.27;100.00;98785.22;7391175;19;20933;-47
2022/11/03 01:52:04;;;;;;;433.58;389.52;;;;;;;5.88;100.00;98776.06;7391412;19;20015;-46
2022/11/03 01:54:42;;;;;;;438.13;392.60;;;;;;;5.97;100.00;98774.03;7385831;19;20011;-48
2022/11/03 01:57:20;;;;;;;431.80;387.73;;;;;;;5.85;100.00;98777.00;7386901;19;20018;-47
2022/11/03 01:59:54;;;;;;;448.30;402.48;;;;;;;6.01;100.00;98765.19;7383860;19;20454;-53
2022/11/03 02:02:32;;;;;;;430.13;386.08;;;;;;;5.88;100.00;98774.31;7388661;19;20015;-48
2022/11/03 02:05:08;;;;;;;471.98;426.10;;;;;;;6.12;100.00;98768.28;7386238;19;20074;-51
2022/11/03 02:07:45;;;;;;;451.05;406.63;;;;;;;5.92;100.00;98769.84;7388938;19;20041;-47
2022/11/03 02:10:22;;;;;;;445.23;400.77;;;;;;;5.84;100.00;98764.88;7387639;19;20018;-58
2022/11/03 02:12:56;;;;;;;434.38;390.42;;;;;;;5.47;100.00;98759.13;7389728;19;20018;-47
2022/11/03 02:15:30;;;;;;;437.38;393.45;;;;;;;5.47;100.00;98764.34;7390458;19;20017;-46
2022/11/03 02:18:05;;;;;;;443.63;398.23;;;;;;;5.55;100.00;98757.13;7385521;19;20015;-48
2022/11/03 02:20:40;;;;;;;423.23;379.63;;;;;;;5.65;100.00;98763.75;7389856;19;20015;-47
2022/11/03 02:23:36;;;;;;;443.23;398.67;;;;;;;5.55;100.00;98762.34;7386100;19;20263;-51
2022/11/03 02:26:15;;;;;;;448.08;403.75;;;;;;;5.55;100.00;98756.28;7389269;19;20015;-47
2022/11/03 02:28:48;;;;;;;469.13;422.23;;;;;;;5.45;100.00;98760.91;7385734;19;20014;-48
2022/11/03 02:31:29;;;;;;;426.85;382.80;;;;;;;5.44;100.00;98764.41;7390516;19;20021;-46
2022/11/03 02:34:10;;;;;;;445.63;400.02;;;;;;;5.43;100.00;98762.72;7385130;19;20020;-47
2022/11/03 02:36:50;;;;;;;433.05;388.95;;;;;;;5.57;100.00;98768.38;7388420;19;20018;-47
2022/11/03 02:39:29;;;;;;;436.40;390.67;;;;;;;5.52;100.00;98772.03;7382527;19;20047;-47
2022/11/03 02:42:08;;;;;;;446.35;402.17;;;;;;;5.33;100.00;98758.69;7387382;19;20561;-47
2022/11/03 02:44:43;;;;;;;457.23;411.45;;;;;;;5.33;100.00;98761.28;7385242;19;20078;-46
2022/11/03 02:47:18;;;;;;;436.52;391.42;;;;;;;5.20;100.00;98762.56;7388795;19;20034;-50
2022/11/03 02:49:52;;;;;;;430.27;385.92;;;;;;;5.33;100.00;98760.44;7388431;19;20537;-47
2022/11/03 02:52:42;;;;;;;434.85;390.20;;;;;;;5.30;100.00;98753.56;7388248;19;20018;-47
2022/11/03 02:55:20;;;;;;;431.02;386.48;;;;;;;5.64;100.00;98756.84;7386418;19;20024;-51
2022/11/03 02:58:02;;;;;;;419.83;375.88;;;;;;;5.04;100.00;98766.50;7385668;19;20002;-51
2022/11/03 03:00:38;;;;;;;453.48;409.02;;;;;;;5.22;100.00;98750.31;7385407;19;20010;-57
2022/11/03 03:03:16;;;;;;;438.85;394.55;;;;;;;5.62;100.00;98761.25;7387651;19;20014;-47
2022/11/03 03:05:51;;;;;;;438.75;393.55;;;;;;;6.04;100.00;98764.22;7385655;19;20006;-47
2022/11/03 03:08:26;;;;;;;439.65;393.75;;;;;;;5.18;100.00;98766.97;7387430;19;20014;-49
2022/11/03 03:11:01;;;;;;;425.25;381.23;;;;;;;4.79;100.00;98774.19;7388059;19;20444;-46
2022/11/03 03:13:37;;;;;;;436.85;390.90;;;;;;;4.90;100.00;98766.91;7384485;19;20008;-48
2022/11/03 03:16:17;;;;;;;418.80;374.42;;;;;;;5.03;100.00;98781.31;7386204;19;20017;-47
2022/11/03 03:18:57;;;;;;;428.15;383.27;;;;;;;5.49;100.00;98777.31;7384450;19;20015;-57
2022/11/03 03:21:35;;;;;;;450.42;405.58;;;;;;;5.72;100.00;98775.72;7388003;19;20046;-48
2022/11/03 03:24:19;;;;;;;458.50;412.80;;;;;;;5.33;100.00;98768.28;7382267;19;20043;-57
2022/11/03 03:26:57;;;;;;;452.85;406.92;;;;;;;5.43;100.00;98764.47;7388509;19;20014;-47
2022/11/03 03:29:39;;;;;;;457.38;411.45;;;;;;;5.26;100.00;98772.81;7384719;19;20474;-57
2022/11/03 03:32:15;;;;;;;435.27;390.85;;;;;;;4.31;100.00;98774.69;7386914;19;20094;-46
2022/11/03 03:34:50;;;;;;;424.27;380.02;;;;;;;4.50;100.00;98775.91;7386155;19;20464;-57
2022/11/03 03:37:26;;;;;;;421.33;377.40;;;;;;;4.16;100.00;98781.13;7387230;19;20028;-47
2022/11/03 03:40:03;;;;;;;426.65;382.60;;;;;;;4.36;100.00;98785.81;7387649;19;20028;-47
2022/11/03 03:42:39;;;;;;;459.05;413.58;;;;;;;4.44;100.00;98782.13;7384477;19;20013;-49
2022/11/03 03:45:18;;;;;;;447.60;403.35;;;;;;;4.35;100.00;98786.72;7388562;19;20010;-47
2022/11/03 03:47:51;;;;;;;473.38;425.88;;;;;;;4.36;100.00;98788.44;7380546;19;20007;-47
2022/11/03 03:50:26;;;;;;;448.15;403.60;;;;;;;4.40;100.00;98783.13;7385437;19;20014;-47
2022/11/03 03:53:02;;;;;;;423.83;380.50;;;;;;;4.31;100.00;98791.16;7383445;19;20039;-57
2022/11/03 03:55:41;;;;;;;426.13;382.70;;;;;;;4.46;100.00;98782.09;7385832;19;20082;-49
2022/11/03 03:58:17;;;;;;;438.02;394.48;;;;;;;4.40;100.00;98785.72;7385182;19;20354;-49
2022/11/03 04:00:53;;;;;;;443.08;398.58;;;;;;;4.51;100.00;98788.88;7385847;19;20011;-49
2022/11/03 04:03:28;;;;;;;461.17;416.02;;;;;;;4.30;100.00;98776.44;7385718;19;20015;-49
2022/11/03 04:06:01;;;;;;;465.98;420.35;;;;;;;4.33;100.00;98785.91;7381745;19;20018;-47
2022/11/03 04:08:34;;;;;;;444.90;399.95;;;;;;;4.38;100.00;98776.22;7386185;19;20037;-46
2022/11/03 04:22:20;;;;;;;441.17;396.38;;;;;;;4.57;100.00;98767.03;7385631;19;20010;-49
2022/11/03 04:24:54;;;;;;;471.42;426.45;;;;;;;4.48;100.00;98769.88;7385337;19;20014;-47
2022/11/03 04:27:34;;;;;;;467.52;421.40;;;;;;;4.61;100.00;98766.88;7380847;19;20019;-48
2022/11/03 04:30:18;;;;;;;439.48;395.15;;;;;;;4.51;100.00;98761.97;7383740;19;20040;-51
2022/11/03 04:32:56;;;;;;;446.45;401.25;;;;;;;4.51;100.00;98759.38;7382454;19;20021;-48
2022/11/03 04:35:32;;;;;;;451.10;406.38;;;;;;;4.24;100.00;98767.94;7385861;19;20006;-46
2022/11/03 04:38:09;;;;;;;448.15;402.98;;;;;;;4.48;100.00;98760.31;7379042;19;20035;-48
2022/11/03 04:40:47;;;;;;;434.92;391.08;;;;;;;4.19;100.00;98769.78;7384494;19;20384;-46
2022/11/03 04:43:23;;;;;;;443.10;398.10;;;;;;;4.15;100.00;98765.56;7381011;19;20462;-48
2022/11/03 04:45:57;;;;;;;436.10;392.27;;;;;;;3.85;100.00;98769.78;7385683;19;20018;-49
2022/11/03 04:48:34;;;;;;;464.58;420.23;;;;;;;3.35;100.00;98764.88;7384894;19;20015;-49
2022/11/03 04:51:08;;;;;;;;;;;;;;;3.63;100.00;98763.38;7386379;19;20873;-51
2022/11/03 04:53:41;;;;;;;450.70;405.45;;;;;;;3.60;100.00;98755.63;7384300;19;19939;-48
2022/11/03 04:56:20;;;;;;;457.15;410.40;;;;;;;3.34;100.00;98757.13;7376857;19;20019;-50
2022/11/03 04:58:54;;;;;;;461.65;415.70;;;;;;;3.41;100.00;98756.97;7382773;19;20370;-46
2022/11/03 05:01:29;;;;;;;447.95;402.90;;;;;;;3.41;100.00;98756.09;7380302;19;20015;-57
2022/11/03 05:04:05;;;;;;;440.50;395.92;;;;;;;4.06;100.00;98751.03;7385015;19;20474;-51
2022/11/03 05:06:39;;;;;;;438.00;393.33;;;;;;;3.80;100.00;98755.16;7385347;19;20014;-47
2022/11/03 05:09:19;;;;;;;450.10;404.80;;;;;;;4.12;100.00;98760.41;7381916;19;20051;-47
2022/11/03 05:11:53;;;;;;;497.63;450.50;;;;;;;4.10;100.00;98757.03;7385860;19;20084;-46
2022/11/03 05:14:29;;;;;;;500.20;450.80;;;;;;;3.58;100.00;98757.41;7379548;19;20247;-48
2022/11/03 05:17:02;;;;;;;496.65;447.15;;;;;;;3.86;100.00;98761.09;7386210;19;20399;-46
2022/11/03 05:19:42;;;;;;;490.90;441.08;;;;;;;3.77;100.00;98750.03;7388164;19;20007;-52
2022/11/03 05:22:21;;;;;;;475.85;426.63;;;;;;;4.12;100.00;98750.00;7391692;19;20018;-49
2022/11/03 05:25:03;;;;;;;472.95;424.58;;;;;;;3.57;100.00;98760.91;7389119;19;20119;-57
2022/11/03 05:27:36;;;;;;;473.95;425.10;;;;;;;3.46;100.00;98755.09;7391566;19;20007;-48
2022/11/03 05:30:12;;;;;;;473.27;424.45;;;;;;;3.55;100.00;98754.91;7391985;19;20027;-48
2022/11/03 05:32:46;;;;;;;479.83;428.85;;;;;;;3.96;100.00;98756.50;7389210;19;20462;-50
2022/11/03 05:35:28;;;;;;;513.58;463.52;;;;;;;3.23;100.00;98757.38;7392200;19;20011;-48
2022/11/03 05:38:02;;;;;;;527.55;475.08;;;;;;;3.26;100.00;98761.66;7384546;19;20094;-46
2022/11/03 05:40:35;;;;;;;505.27;455.65;;;;;;;3.12;100.00;98761.09;7390068;19;20477;-48
2022/11/03 05:43:08;;;;;;;503.88;453.65;;;;;;;3.17;100.00;98761.88;7387015;19;20410;-57
2022/11/03 05:45:43;;;;;;;496.15;446.92;;;;;;;3.36;100.00;98752.75;7385623;19;20097;-47
2022/11/03 05:48:24;;;;;;;497.13;448.85;;;;;;;3.58;100.00;98756.56;7391525;19;20374;-47
2022/11/03 05:51:01;;;;;;;497.65;448.23;;;;;;;3.26;100.00;98748.66;7392619;19;20006;-49
2022/11/03 05:53:37;;;;;;;488.98;440.48;;;;;;;3.47;100.00;98755.97;7392563;19;20011;-47
2022/11/03 05:56:12;;;;;;;487.80;439.40;;;;;;;3.07;100.00;98760.34;7383616;19;20351;-49
2022/11/03 05:58:47;;;;;;;469.33;420.90;;;;;;;3.54;100.00;98754.94;7389111;19;20010;-47
2022/11/03 06:01:26;;;;;;;489.60;442.10;;;;;;;3.49;100.00;98756.75;7387166;19;20402;-50
2022/11/03 06:04:00;;;;;;;469.05;423.10;;;;;;;3.39;100.00;98752.69;7390436;19;20022;-46
2022/11/03 06:06:40;;;;;;;469.95;423.40;;;;;;;4.14;100.00;98758.66;7392485;19;20034;-46
2022/11/03 06:09:21;;;;;;;452.23;406.98;;;;;;;4.06;100.00;98761.44;7390897;19;20018;-48
2022/11/03 06:11:57;;;;;;;470.73;424.67;;;;;;;4.09;100.00;98763.13;7391762;19;20344;-49
2022/11/03 06:14:32;;;;;;;463.95;417.70;;;;;;;4.30;100.00;98763.41;7391349;19;20327;-48
2022/11/03 06:17:07;;;;;;;479.42;432.63;;;;;;;3.75;100.00;98770.00;7390570;19;20074;-49
2022/11/03 06:19:44;;;;;;;513.22;463.73;;;;;;;4.46;100.00;98769.06;7385266;19;20585;-48
2022/11/03 06:22:25;;;;;;;495.08;446.83;;;;;;;4.45;100.00;98762.13;7391456;19;20010;-50
2022/11/03 06:25:02;;;;;;;509.35;459.42;;;;;;;4.77;100.00;98769.91;7385903;19;20032;-50
2022/11/03 06:27:40;;;;;;;493.48;446.40;;;;;;;4.53;100.00;98773.22;7388230;19;20660;-55
2022/11/03 06:30:27;;;;;;;496.17;448.65;;;;;;;4.69;100.00;98774.50;7383312;19;20018;-55
2022/11/03 06:33:03;;;;;;;493.27;447.15;;;;;;;4.87;100.00;98773.97;7387779;19;20010;-50
2022/11/03 06:35:36;;;;;;;498.00;451.20;;;;;;;4.71;100.00;98775.28;7385011;19;20092;-54
2022/11/03 06:38:21;;;;;;;490.85;445.23;;;;;;;4.88;100.00;98770.47;7388871;19;20348;-51
2022/11/03 06:40:56;;;;;;;486.50;439.92;;;;;;;5.00;100.00;98762.28;7384944;19;20028;-52
2022/11/03 06:43:31;;;;;;;481.92;435.92;;;;;;;5.02;100.00;98773.53;7388956;19;20019;-47
2022/11/03 06:46:07;;;;;;;479.60;433.25;;;;;;;5.09;100.00;98769.88;7388842;19;20015;-48
2022/11/03 06:48:41;;;;;;;483.38;436.42;;;;;;;5.25;100.00;98767.63;7387227;19;20042;-47
2022/11/03 06:51:21;;;;;;;471.90;426.13;;;;;;;5.04;100.00;98769.13;7387772;19;20481;-48
2022/11/03 06:54:00;;;;;;;500.02;451.90;;;;;;;5.19;100.00;98773.03;7381386;19;20015;-48
2022/11/03 06:56:40;;;;;;;498.02;451.48;;;;;;;5.47;100.00;98768.69;7389361;19;20010;-51
2022/11/03 06:59:16;;;;;;;499.10;452.23;;;;;;;5.40;100.00;98765.41;7380348;19;20007;-50
2022/11/03 07:01:53;;;;;;;489.60;443.67;;;;;;;5.55;100.00;98766.72;7388335;19;20474;-51
2022/11/03 07:04:31;;;;;;;494.95;446.95;;;;;;;5.46;100.00;98753.94;7384566;19;20474;-57
2022/11/03 07:07:08;;;;;;;474.58;428.77;;;;;;;5.50;100.00;98758.16;7390194;19;20034;-48
2022/11/03 07:09:44;;;;;;;472.95;427.60;;;;;;;5.48;100.00;98757.38;7387546;19;20497;-57
2022/11/03 07:12:22;;;;;;;466.20;421.17;;;;;;;5.86;100.00;98752.63;7388524;19;20014;-51
2022/11/03 07:14:56;;;;;;;493.60;447.17;;;;;;;6.08;100.00;98750.16;7389257;19;20073;-52
2022/11/03 07:17:29;;;;;;;491.58;443.65;;;;;;;5.83;100.00;98759.69;7384552;19;20011;-49
2022/11/03 07:20:04;;;;;;;496.55;450.70;;;;;;;5.78;100.00;98754.63;7389040;19;20010;-49
2022/11/03 07:22:37;;;;;;;481.17;434.92;;;;;;;6.07;100.00;98754.50;7384401;19;20027;-56
2022/11/03 07:25:21;;;;;;;474.80;428.15;;;;;;;6.02;100.00;98759.03;7387798;19;20110;-49
2022/11/03 07:27:57;;;;;;;478.08;430.98;;;;;;;6.32;100.00;98755.41;7381570;19;20380;-57
2022/11/03 07:30:35;;;;;;;476.17;430.67;;;;;;;6.36;100.00;98749.19;7386324;19;20010;-50
2022/11/03 07:33:17;;;;;;;475.88;430.10;;;;;;;6.13;100.00;98746.47;7385797;19;20020;-51
2022/11/03 07:35:52;;;;;;;472.15;426.15;;;;;;;6.13;100.00;98736.03;7385292;19;20014;-50
2022/11/03 07:38:28;;;;;;;477.60;431.55;;;;;;;6.36;100.00;98737.91;7384142;19;20035;-55
2022/11/03 07:41:05;;;;;;;490.17;442.58;;;;;;;6.58;100.00;98741.47;7383885;19;20277;-51
2022/11/03 07:43:40;;;;;;;480.58;434.70;;;;;;;7.14;100.00;98738.44;7387797;19;20469;-48
2022/11/03 07:46:25;;;;;;;497.92;449.20;;;;;;;6.66;100.00;98736.81;7383699;19;20014;-53
2022/11/03 07:49:01;;;;;;;468.98;421.55;;;;;;;6.85;100.00;98737.84;7386291;19;20010;-49
2022/11/03 07:51:39;;;;;;;470.98;422.38;;;;;;;6.83;100.00;98716.97;7381289;19;20010;-48
2022/11/03 07:54:22;;;;;;;472.20;424.75;;;;;;;6.88;100.00;98730.72;7387512;19;20018;-48
2022/11/03 07:57:01;;;;;;;493.50;444.10;;;;;;;6.89;100.00;98731.59;7380545;19;20417;-50
2022/11/03 07:59:38;;;;;;;469.60;422.35;;;;;;;6.99;100.00;98730.34;7384892;19;20014;-52
2022/11/03 08:02:21;;;;;;;;;;;;;;;7.04;100.00;98723.16;7383793;19;20017;-52
2022/11/03 08:04:54;;;;;;;498.33;448.70;;;;;;;7.38;100.00;98719.19;7387632;19;19914;-48
2022/11/03 08:07:28;;;;;;;491.00;441.98;;;;;;;7.60;100.00;98719.19;7384373;19;20039;-53
2022/11/03 08:10:01;;;;;;;490.58;441.75;;;;;;;7.21;100.00;98721.59;7385492;19;20022;-49
2022/11/03 08:12:37;;;;;;;485.42;436.95;;;;;;;7.19;100.00;98723.44;7386782;19;20014;-53
2022/11/03 08:15:12;;;;;;;473.90;424.52;;;;;;;7.47;100.00;98715.38;7381551;19;20010;-51
2022/11/03 08:17:45;;;;;;;469.27;421.90;;;;;;;7.69;100.00;98716.22;7383797;19;20513;-49
2022/11/03 08:20:18;;;;;;;463.38;416.88;;;;;;;7.51;100.00;98720.38;7384147;19;20519;-57
2022/11/03 08:22:51;;;;;;;485.63;437.73;;;;;;;7.71;100.00;98717.84;7386338;19;20022;-53
2022/11/03 08:25:24;;;;;;;488.88;441.00;;;;;;;7.76;100.00;98718.50;7387687;19;20017;-53
2022/11/03 08:28:01;;;;;;;489.23;440.23;;;;;;;7.83;100.00;98713.84;7382686;19;20029;-49
2022/11/03 08:30:35;;;;;;;;;;;;;;;8.09;100.00;98706.66;7387244;19;20029;-49
2022/11/03 08:33:09;;;;;;;471.88;422.73;;;;;;;8.15;100.00;98705.53;7383703;19;19907;-54
2022/11/03 08:35:42;;;;;;;465.90;418.75;;;;;;;8.33;100.00;98703.00;7388346;19;20395;-49
2022/11/03 08:38:15;;;;;;;468.70;421.73;;;;;;;8.33;100.00;98705.63;7385569;19;20469;-48
2022/11/03 08:40:49;;;;;;;463.60;415.83;;;;;;;8.32;100.00;98696.03;7382131;19;20042;-50
2022/11/03 08:43:24;;;;;;;449.60;404.08;;;;;;;8.21;100.00;98695.63;7387858;19;20031;-52
2022/11/03 08:45:58;;;;;;;471.92;425.17;;;;;;;8.38;100.00;98699.31;7382640;19;20042;-56
2022/11/03 08:48:33;;;;;;;479.33;431.42;;;;;;;8.38;100.00;98693.16;7384671;19;20027;-52
2022/11/03 08:51:07;;;;;;;454.90;409.17;;;;;;;8.48;100.00;98690.97;7384141;19;20015;-54
2022/11/03 08:53:41;;;;;;;466.90;418.67;;;;;;;8.90;100.00;98683.81;7381575;19;20007;-52
2022/11/03 08:56:19;;;;;;;450.52;404.65;;;;;;;8.59;100.00;98686.09;7387166;19;20014;-48
2022/11/03 08:58:55;;;;;;;437.05;392.05;;;;;;;8.57;100.00;98671.38;7378052;19;20533;-51
2022/11/03 09:01:35;;;;;;;444.98;399.92;;;;;;;8.66;100.00;98668.31;7387363;19;20422;-48
2022/11/03 09:04:15;;;;;;;570.72;510.95;;;;;;;8.54;100.00;98671.50;7380310;19;20011;-50
2022/11/03 09:06:48;;;;;;;478.52;430.48;;;;;;;8.50;100.00;98673.44;7386460;19;20014;-48
2022/11/03 09:09:21;;;;;;;446.42;401.80;;;;;;;8.41;100.00;98673.00;7384097;19;20021;-55
2022/11/03 09:11:55;;;;;;;447.20;401.73;;;;;;;8.51;100.00;98674.25;7381477;19;20800;-48
2022/11/03 09:14:30;;;;;;;456.88;410.48;;;;;;;8.64;100.00;98664.94;7383895;19;20025;-48
2022/11/03 09:17:04;;;;;;;614.75;548.10;;;;;;;8.79;100.00;98662.47;7380951;19;20010;-49
2022/11/03 09:19:37;;;;;;;623.78;557.10;;;;;;;8.65;100.00;98661.38;7382145;19;20485;-49
2022/11/03 09:22:10;;;;;;;455.23;409.27;;;;;;;8.75;100.00;98654.81;7384024;19;20003;-48
2022/11/03 09:24:43;;;;;;;506.83;456.02;;;;;;;8.79;100.00;98649.38;7380443;19;20450;-51
2022/11/03 09:27:17;;;;;;;500.67;451.45;;;;;;;8.61;100.00;98649.34;7383960;19;20014;-52
2022/11/03 09:29:53;;;;;;;505.33;455.27;;;;;;;8.83;100.00;98650.94;7378999;19;20371;-50
2022/11/03 09:32:26;;;;;;;490.00;441.30;;;;;;;8.81;100.00;98646.66;7384705;19;20482;-48
2022/11/03 09:34:59;;;;;;;503.77;454.95;;;;;;;8.91;100.00;98648.78;7383367;19;20517;-50
2022/11/03 09:37:33;;;;;;;494.77;444.23;;;;;;;8.97;100.00;98645.88;7382096;19;20014;-48
2022/11/03 09:40:06;;;;;;;499.55;450.80;;;;;;;8.94;100.00;98647.78;7381620;19;20034;-53
2022/11/03 09:42:41;;;;;;;491.35;442.95;;;;;;;8.91;100.00;98630.44;7377999;19;20018;-57
2022/11/03 09:45:17;;;;;;;489.58;440.02;;;;;;;9.12;100.00;98633.81;7382015;19;20436;-48
2022/11/03 09:47:53;;;;;;;493.75;444.42;;;;;;;9.43;100.00;98628.78;7381225;19;20128;-47
2022/11/03 09:50:26;;;;;;;495.88;446.23;;;;;;;9.15;100.00;98631.88;7381937;19;20315;-48
2022/11/03 09:52:59;;;;;;;491.40;442.48;;;;;;;9.30;100.00;98625.06;7382021;19;20014;-51
2022/11/03 09:55:33;;;;;;;485.13;434.75;;;;;;;9.22;100.00;98617.53;7374408;19;20047;-49
2022/11/03 09:58:15;;;;;;;487.95;438.35;;;;;;;9.19;100.00;98627.34;7383217;19;20348;-50
2022/11/03 10:00:54;;;;;;;489.55;438.30;;;;;;;9.41;100.00;98613.09;7380148;19;20099;-59
2022/11/03 10:03:28;;;;;;;488.25;438.45;;;;;;;9.48;100.00;98604.00;7389010;19;20078;-48
2022/11/03 10:06:04;;;;;;;488.60;438.45;;;;;;;9.69;100.00;98596.84;7391271;19;20474;-50
2022/11/03 10:08:41;;;;;;;496.75;446.10;;;;;;;9.38;100.00;98599.28;7390971;19;20434;-48
2022/11/03 10:11:14;;;;;;;491.85;442.90;;;;;;;9.36;100.00;98594.09;7391478;19;20474;-48
2022/11/03 10:13:51;;;;;;;493.15;443.05;;;;;;;9.50;100.00;98594.28;7385439;19;20010;-49
2022/11/03 10:16:30;;;;;;;472.13;424.05;;;;;;;9.57;100.00;98584.31;7389322;19;20039;-48
2022/11/03 10:19:04;;;;;;;478.85;429.70;;;;;;;9.42;100.00;98579.84;7383505;19;20050;-51
2022/11/03 10:21:38;;;;;;;482.38;433.83;;;;;;;9.66;100.00;98576.03;7387951;19;20014;-50
2022/11/03 10:24:14;;;;;;;485.92;436.23;;;;;;;9.40;100.00;98582.53;7390983;19;20381;-49
2022/11/03 10:26:51;;;;;;;501.30;450.42;;;;;;;9.19;100.00;98573.06;7388647;19;20040;-52
2022/11/03 10:29:26;;;;;;;487.15;437.80;;;;;;;9.63;100.00;98570.94;7387447;19;20015;-47
2022/11/03 10:32:05;;;;;;;512.42;461.15;;;;;;;9.80;100.00;98563.00;7381928;19;20018;-47
2022/11/03 10:34:40;;;;;;;495.65;445.95;;;;;;;9.66;100.00;98561.09;7388244;19;20043;-49
2022/11/03 10:37:22;;;;;;;495.65;444.92;;;;;;;9.67;100.00;98556.72;7385170;19;20011;-54
2022/11/03 10:39:58;;;;;;;491.15;441.42;;;;;;;9.67;100.00;98559.34;7387318;19;20546;-48
2022/11/03 10:42:33;;;;;;;491.00;441.17;;;;;;;9.85;100.00;98561.03;7387283;19;20021;-49
2022/11/03 10:45:19;;;;;;;505.75;455.17;;;;;;;9.68;100.00;98559.25;7390224;19;20018;-49
2022/11/03 10:48:05;;;;;;;503.85;453.10;;;;;;;9.96;100.00;98542.94;7384384;19;20492;-50
2022/11/03 10:50:39;;;;;;;498.17;447.90;;;;;;;9.60;100.00;98557.91;7388300;19;20014;-53
2022/11/03 10:53:22;;;;;;;513.50;462.08;;;;;;;9.90;100.00;98553.75;7384571;19;20035;-59
2022/11/03 10:55:56;;;;;;;499.45;449.20;;;;;;;9.72;100.00;98550.28;7385773;19;20066;-51
2022/11/03 10:58:30;;;;;;;494.95;445.10;;;;;;;9.35;100.00;98544.31;7387595;19;20055;-50
2022/11/03 11:01:04;;;;;;;511.13;458.88;;;;;;;9.58;100.00;98538.75;7385722;19;20739;-51
2022/11/03 11:03:45;;;;;;;497.60;446.80;;;;;;;10.10;100.00;98530.75;7383863;19;20347;-53
2022/11/03 11:06:31;;;;;;;504.42;452.27;;;;;;;10.31;100.00;98526.13;7376790;19;20311;-53
2022/11/03 11:09:08;;;;;;;501.50;450.17;;;;;;;10.17;100.00;98529.50;7383453;19;20046;-51
2022/11/03 11:11:41;;;;;;;;;;;;;;;10.07;100.00;98527.44;7384293;19;20031;-50
2022/11/03 11:14:28;;;;;;;500.67;449.65;;;;;;;10.41;99.38;98511.53;7385720;19;19919;-48
2022/11/03 11:17:03;;;;;;;501.80;450.65;;;;;;;10.51;100.00;98507.50;7386435;19;20118;-48
2022/11/03 11:20:17;;;;;;;500.40;449.48;;;;;;;10.65;95.97;98502.28;7384104;19;20021;-49
2022/11/03 11:22:51;;;;;;;501.60;450.67;;;;;;;10.09;98.14;98494.03;7384065;19;20025;-53
2022/11/03 11:25:24;;;;;;;511.45;458.55;;;;;;;10.13;93.56;98487.69;7381110;19;20022;-48
2022/11/03 11:28:02;;;;;;;502.70;451.45;;;;;;;10.09;94.36;98480.91;7387823;19;20508;-52
2022/11/03 11:31:07;;;;;;;491.15;440.63;;;;;;;10.39;97.14;98476.59;7384031;19;20018;-57
2022/11/03 11:33:40;;;;;;;503.30;452.17;;;;;;;10.20;97.80;98470.66;7387768;19;20078;-48
2022/11/03 11:36:34;;;;;;;521.75;468.08;;;;;;;10.22;96.79;98471.44;7385436;19;20010;-49
2022/11/03 11:39:10;;;;;;;510.35;458.23;;;;;;;10.17;94.86;98466.41;7386306;19;20026;-58
2022/11/03 11:42:12;;;;;;;497.27;446.08;;;;;;;10.36;96.35;98469.72;7387194;19;20043;-50
2022/11/03 11:45:11;;;;;;;513.05;460.15;;;;;;;10.15;93.49;98459.56;7382021;19;20481;-49
2022/11/03 11:48:00;;;;;;;513.97;462.33;;;;;;;9.99;94.87;98454.28;7379259;19;20014;-59
2022/11/03 11:50:36;;;;;;;507.05;455.60;;;;;;;10.15;94.38;98441.16;7386069;19;20363;-51
2022/11/03 11:53:17;;;;;;;513.92;462.00;;;;;;;10.26;98.95;98423.00;7381235;19;20589;-50
2022/11/03 11:55:55;;;;;;;506.42;455.00;;;;;;;10.24;94.39;98428.34;7384770;19;20374;-46
2022/11/03 11:58:39;;;;;;;524.03;470.85;;;;;;;10.14;98.17;98424.53;7382918;19;20014;-58
2022/11/03 12:01:28;;;;;;;504.70;453.83;;;;;;;10.28;98.64;98414.09;7387728;19;20462;-47